Time;durP1;ratioP1;P1;durP2;ratioP2;P2;SDS_P1;SDS_P2;PMS_P1;PMS_P2;Temp;Humidity;BMP_temperature;BMP_pressure;BME280_temperature;BME280_humidity;BME280_pressure;Samples;Min_cycle;Max_cycle;Signal;HPM_P1;HPM_P2
2022/10/16 00:00:57;;;;;;;5.90;3.53;;;;;;;11.54;100.00;100862.84;5096758;28;20024;-82
2022/10/16 00:03:22;;;;;;;6.63;3.40;;;;;;;11.50;100.00;100856.19;5096926;28;20533;-82
2022/10/16 00:05:47;;;;;;;5.30;2.87;;;;;;;11.48;100.00;100859.13;5096899;28;20066;-82
2022/10/16 00:08:13;;;;;;;5.57;3.07;;;;;;;11.47;100.00;100860.19;5079800;28;20123;-82
2022/10/16 00:10:39;;;;;;;7.63;3.28;;;;;;;11.44;100.00;100848.94;5079631;28;20031;-82
2022/10/16 00:13:05;;;;;;;7.55;3.33;;;;;;;11.47;100.00;100854.78;5096428;28;20080;-82
2022/10/16 00:15:35;;;;;;;9.27;3.30;;;;;;;11.46;100.00;100860.44;5096623;28;20104;-82
2022/10/16 00:18:03;;;;;;;5.43;2.90;;;;;;;11.45;100.00;100856.84;5096809;28;20028;-82
2022/10/16 00:20:28;;;;;;;10.73;3.20;;;;;;;11.46;100.00;100860.44;5097339;28;20114;-82
2022/10/16 00:22:54;;;;;;;10.23;3.37;;;;;;;11.44;100.00;100855.22;5096154;28;20539;-82
2022/10/16 00:25:19;;;;;;;6.70;3.03;;;;;;;11.41;100.00;100858.34;5096176;28;20043;-82
2022/10/16 00:27:44;;;;;;;5.73;3.57;;;;;;;11.40;100.00;100856.69;5096198;28;20055;-82
2022/10/16 00:30:10;;;;;;;6.03;3.27;;;;;;;11.39;100.00;100857.75;5096883;28;20122;-82
2022/10/16 00:32:36;;;;;;;7.13;3.67;;;;;;;11.36;100.00;100859.00;5096010;28;20057;-82
2022/10/16 00:35:03;;;;;;;8.57;3.20;;;;;;;11.34;100.00;100855.69;5080335;28;20280;-82
2022/10/16 00:37:28;;;;;;;5.45;2.78;;;;;;;11.34;100.00;100852.97;5079651;28;20031;-82
2022/10/16 00:39:53;;;;;;;7.07;3.23;;;;;;;11.30;100.00;100862.63;5096014;28;20031;-82
2022/10/16 00:42:19;;;;;;;6.63;3.10;;;;;;;11.30;100.00;100865.31;5096743;28;20034;-82
2022/10/16 00:44:53;;;;;;;8.03;2.83;;;;;;;11.33;100.00;100872.22;5114674;28;20353;-82
2022/10/16 00:47:32;;;;;;;6.75;3.05;;;;;;;11.30;100.00;100862.63;5096141;28;20405;-82
2022/10/16 00:50:08;;;;;;;6.65;2.50;;;;;;;11.27;100.00;100862.22;5096368;28;20035;-82
2022/10/16 00:52:33;;;;;;;8.50;2.92;;;;;;;11.28;100.00;100862.00;5096022;28;20035;-83
2022/10/16 00:55:01;;;;;;;8.13;2.40;;;;;;;11.29;100.00;100863.66;5096242;28;20028;-84
2022/10/16 00:57:27;;;;;;;4.32;2.97;;;;;;;11.29;100.00;100865.53;5079295;28;20035;-84
2022/10/16 00:59:55;;;;;;;4.95;2.78;;;;;;;11.28;100.00;100867.44;5079150;28;20467;-84
2022/10/16 01:02:20;;;;;;;5.30;2.50;;;;;;;11.27;100.00;100854.91;5114168;28;20023;-84
2022/10/16 01:04:50;;;;;;;5.53;2.40;;;;;;;11.24;100.00;100856.16;5079305;28;20403;-82
2022/10/16 01:07:35;;;;;;;3.65;2.50;;;;;;;11.22;100.00;100855.56;5096015;28;20075;-81
2022/10/16 01:10:35;;;;;;;5.75;2.90;;;;;;;11.19;100.00;100858.72;5044898;28;20035;-82
2022/10/16 01:13:06;;;;;;;4.97;2.15;;;;;;;11.15;100.00;100852.06;5096144;28;20538;-82
2022/10/16 01:15:47;;;;;;;6.32;2.67;;;;;;;11.13;100.00;100853.31;5096390;28;20031;-82
2022/10/16 01:18:28;;;;;;;7.43;2.40;;;;;;;11.08;100.00;100856.69;5114718;28;20080;-82
2022/10/16 01:21:34;;;;;;;4.20;2.40;;;;;;;11.08;100.00;100866.75;5096888;28;20043;-82
2022/10/16 01:24:24;;;;;;;4.43;2.10;;;;;;;11.09;100.00;100873.81;5092529;28;20047;-82
2022/10/16 01:27:08;;;;;;;5.70;2.38;;;;;;;11.04;100.00;100867.19;5116569;28;20044;-82
2022/10/16 01:29:42;;;;;;;6.30;2.25;;;;;;;11.06;100.00;100864.25;5100325;28;20130;-82
2022/10/16 01:32:19;;;;;;;5.43;2.23;;;;;;;11.04;100.00;100867.19;5100017;28;20490;-82
2022/10/16 01:34:51;;;;;;;6.43;2.55;;;;;;;11.07;100.00;100868.59;5099957;28;20028;-82
2022/10/16 01:37:33;;;;;;;5.10;2.50;;;;;;;11.11;100.00;100866.31;5118261;28;20120;-82
2022/10/16 01:40:02;;;;;;;4.90;2.30;;;;;;;11.16;100.00;100859.16;5099858;28;20181;-82
2022/10/16 01:42:34;;;;;;;6.05;2.30;;;;;;;11.20;100.00;100873.94;5099438;28;20071;-82
2022/10/16 01:45:00;;;;;;;5.73;2.40;;;;;;;11.22;100.00;100873.75;5100166;28;20380;-82
2022/10/16 01:47:27;;;;;;;4.18;2.17;;;;;;;11.21;100.00;100866.66;5099588;28;20024;-82
2022/10/16 01:49:56;;;;;;;5.25;2.30;;;;;;;11.18;100.00;100848.09;5099524;28;20046;-82
2022/10/16 01:52:25;;;;;;;5.85;2.33;;;;;;;11.19;100.00;100852.44;5117357;28;20485;-82
2022/10/16 01:54:55;;;;;;;5.13;2.03;;;;;;;11.21;100.00;100858.50;5098870;28;20028;-82
2022/10/16 01:57:24;;;;;;;5.90;2.07;;;;;;;11.22;100.00;100857.47;5099214;28;20122;-82
2022/10/16 01:59:54;;;;;;;9.25;2.25;;;;;;;11.22;100.00;100852.84;5099063;28;20058;-82
2022/10/16 02:02:22;;;;;;;4.40;2.25;;;;;;;11.26;100.00;100861.38;5099420;28;20030;-81
2022/10/16 02:05:19;;;;;;;4.88;2.08;;;;;;;11.29;100.00;100863.66;5099335;28;20119;-82
2022/10/16 02:07:44;;;;;;;3.85;1.90;;;;;;;11.32;100.00;100865.09;5099653;28;20343;-82
2022/10/16 02:10:10;;;;;;;5.33;1.90;;;;;;;11.29;100.00;100868.25;5098716;28;20035;-82
2022/10/16 02:12:40;;;;;;;4.28;2.17;;;;;;;11.24;100.00;100872.47;5116931;28;20491;-82
2022/10/16 02:15:06;;;;;;;4.25;1.75;;;;;;;11.21;100.00;100872.09;5099214;28;20364;-82
2022/10/16 02:17:32;;;;;;;4.63;1.87;;;;;;;11.16;100.00;100863.75;5117427;28;20036;-82
2022/10/16 02:19:59;;;;;;;3.60;1.73;;;;;;;11.19;100.00;100872.31;5116861;28;20465;-81
2022/10/16 02:22:36;;;;;;;2.65;1.83;;;;;;;11.19;100.00;100864.16;5117022;28;20084;-82
2022/10/16 02:25:17;;;;;;;6.45;1.77;;;;;;;11.16;100.00;100858.31;5098909;28;20028;-82
2022/10/16 02:27:57;;;;;;;4.75;1.92;;;;;;;11.14;100.00;100863.16;5116702;28;20051;-82
2022/10/16 02:30:32;;;;;;;6.73;2.50;;;;;;;11.15;100.00;100870.25;5098874;28;20471;-82
2022/10/16 02:33:00;;;;;;;3.67;1.98;;;;;;;11.12;100.00;100865.25;5099128;28;20046;-82
2022/10/16 02:35:27;;;;;;;4.55;1.83;;;;;;;11.10;100.00;100861.91;5116465;28;20032;-82
2022/10/16 02:37:54;;;;;;;5.38;2.30;;;;;;;11.08;100.00;100861.31;5115423;28;20031;-82
2022/10/16 02:40:20;;;;;;;4.80;1.73;;;;;;;11.06;100.00;100875.09;5116410;28;20105;-82
2022/10/16 02:42:50;;;;;;;3.90;1.63;;;;;;;11.01;100.00;100875.75;5098676;28;20463;-82
2022/10/16 02:45:16;;;;;;;2.20;1.70;;;;;;;11.01;100.00;100878.47;5098550;28;20531;-82
2022/10/16 02:47:41;;;;;;;4.68;1.80;;;;;;;10.98;100.00;100870.75;5081390;28;20177;-82
2022/10/16 02:50:07;;;;;;;4.03;1.70;;;;;;;10.93;100.00;100867.03;5081034;28;20110;-82
2022/10/16 02:52:33;;;;;;;2.87;1.50;;;;;;;10.93;100.00;100870.56;5080915;28;20134;-82
2022/10/16 02:54:58;;;;;;;3.77;1.40;;;;;;;10.92;100.00;100866.19;5081780;28;20042;-82
2022/10/16 02:57:24;;;;;;;6.85;1.98;;;;;;;10.87;100.00;100853.25;5098054;28;20089;-82
2022/10/16 02:59:49;;;;;;;5.50;1.53;;;;;;;10.85;100.00;100858.09;5098071;28;20034;-82
2022/10/16 03:02:17;;;;;;;4.20;1.80;;;;;;;10.87;100.00;100868.72;5064543;28;20028;-82
2022/10/16 03:04:43;;;;;;;3.78;1.75;;;;;;;10.88;100.00;100876.66;5097917;28;20043;-82
2022/10/16 03:07:08;;;;;;;6.77;1.87;;;;;;;10.88;100.00;100873.94;5097397;28;20028;-82
2022/10/16 03:09:34;;;;;;;6.30;1.60;;;;;;;10.89;100.00;100872.06;5097899;28;20037;-82
2022/10/16 03:11:59;;;;;;;5.13;1.50;;;;;;;10.91;100.00;100869.97;5081030;28;20038;-82
2022/10/16 03:14:25;;;;;;;6.20;1.43;;;;;;;10.90;100.00;100867.47;5081181;28;20031;-82
2022/10/16 03:16:50;;;;;;;3.53;1.23;;;;;;;10.86;100.00;100870.59;5097887;28;20031;-82
2022/10/16 03:19:17;;;;;;;2.50;1.20;;;;;;;10.88;100.00;100879.38;5116225;28;20028;-82
2022/10/16 03:21:45;;;;;;;6.00;1.30;;;;;;;10.92;100.00;100884.38;5097541;28;20459;-82
2022/10/16 03:24:11;;;;;;;3.40;1.30;;;;;;;10.90;100.00;100891.91;5081413;28;20032;-82
2022/10/16 03:26:36;;;;;;;5.27;1.40;;;;;;;10.90;100.00;100887.28;5115770;28;20031;-82
2022/10/16 03:29:03;;;;;;;2.20;1.20;;;;;;;10.92;100.00;100893.31;5097637;28;20100;-82
2022/10/16 03:31:32;;;;;;;4.13;1.48;;;;;;;10.93;100.00;100902.31;5098267;28;20134;-82
2022/10/16 03:33:57;;;;;;;3.03;1.33;;;;;;;10.91;100.00;100904.41;5080812;28;20130;-82
2022/10/16 03:36:22;;;;;;;4.30;1.30;;;;;;;10.93;100.00;100897.72;5097309;28;20451;-82
2022/10/16 03:38:48;;;;;;;6.13;1.60;;;;;;;10.96;100.00;100888.31;5081141;28;20092;-82
2022/10/16 03:41:13;;;;;;;6.63;1.20;;;;;;;10.98;100.00;100905.22;5080335;28;20502;-81
2022/10/16 03:43:38;;;;;;;3.70;1.50;;;;;;;10.96;100.00;100905.44;5080287;28;20031;-82
2022/10/16 03:46:04;;;;;;;3.10;1.23;;;;;;;10.93;100.00;100907.75;5097147;28;20169;-82
2022/10/16 03:48:30;;;;;;;3.93;1.20;;;;;;;10.94;100.00;100910.25;5079815;28;20024;-82
2022/10/16 03:50:55;;;;;;;3.30;1.38;;;;;;;10.96;100.00;100912.75;5097289;28;20383;-82
2022/10/16 03:53:21;;;;;;;2.63;1.43;;;;;;;11.02;100.00;100903.72;5080009;28;20031;-85
2022/10/16 03:55:46;;;;;;;2.33;1.50;;;;;;;11.03;100.00;100913.56;5097104;28;20463;-82
2022/10/16 03:58:12;;;;;;;3.77;1.30;;;;;;;11.04;100.00;100916.06;5097086;28;20363;-82
2022/10/16 04:00:44;;;;;;;3.55;1.38;;;;;;;11.03;100.00;100917.09;5096862;28;20030;-82
2022/10/16 04:03:11;;;;;;;5.68;1.73;;;;;;;11.02;100.00;100920.03;5097094;28;20030;-83
2022/10/16 04:05:36;;;;;;;3.07;1.40;;;;;;;11.02;100.00;100911.88;5114977;28;20031;-82
2022/10/16 04:08:02;;;;;;;4.32;1.52;;;;;;;11.05;100.00;100914.97;5096923;28;20490;-82
2022/10/16 04:10:27;;;;;;;4.17;1.73;;;;;;;11.06;100.00;100919.38;5114999;28;20212;-81
2022/10/16 04:12:55;;;;;;;6.30;1.83;;;;;;;11.06;100.00;100922.09;5096499;28;20084;-82
2022/10/16 04:15:24;;;;;;;2.70;1.67;;;;;;;11.08;100.00;100921.88;5080067;28;20128;-82
2022/10/16 04:17:50;;;;;;;3.28;2.05;;;;;;;11.09;100.00;100912.69;5079634;28;20028;-81
2022/10/16 04:20:15;;;;;;;5.13;1.73;;;;;;;11.11;100.00;100923.31;5096789;28;20030;-82
2022/10/16 04:22:41;;;;;;;3.58;1.70;;;;;;;11.10;100.00;100921.66;5062674;28;20498;-81
2022/10/16 04:25:07;;;;;;;3.50;1.40;;;;;;;11.10;100.00;100924.38;5096592;28;20455;-82
2022/10/16 04:27:32;;;;;;;4.60;1.83;;;;;;;11.16;100.00;100918.06;5079413;28;20411;-82
2022/10/16 04:29:59;;;;;;;4.80;2.08;;;;;;;11.12;100.00;100917.69;5096379;28;20036;-82
2022/10/16 04:32:25;;;;;;;5.47;1.92;;;;;;;11.12;100.00;100917.69;5096931;28;20040;-82
2022/10/16 04:34:51;;;;;;;5.43;1.93;;;;;;;11.16;100.00;100926.19;5096300;28;20034;-82
2022/10/16 04:37:16;;;;;;;6.22;2.10;;;;;;;11.15;100.00;100933.53;5096568;28;20534;-82
2022/10/16 04:39:42;;;;;;;5.43;2.43;;;;;;;11.13;100.00;100930.22;5079601;28;20035;-82
2022/10/16 04:42:07;;;;;;;5.73;2.27;;;;;;;11.19;100.00;100937.47;5079329;28;20425;-82
2022/10/16 04:44:33;;;;;;;3.73;1.70;;;;;;;11.15;100.00;100941.69;5079308;28;20063;-82
2022/10/16 04:46:58;;;;;;;5.87;2.13;;;;;;;11.15;100.00;100947.09;5079204;28;20066;-82
2022/10/16 04:49:23;;;;;;;2.90;1.65;;;;;;;11.14;100.00;100958.19;5096653;28;20475;-82
2022/10/16 04:51:49;;;;;;;5.57;1.90;;;;;;;11.15;100.00;100949.00;5095876;28;20388;-82
2022/10/16 04:54:14;;;;;;;4.20;1.83;;;;;;;11.12;100.00;100958.41;5114190;28;20080;-82
2022/10/16 04:56:46;;;;;;;4.43;1.90;;;;;;;11.15;100.00;100959.88;5078743;28;20040;-82
2022/10/16 04:59:13;;;;;;;5.40;2.55;;;;;;;11.13;100.00;100959.22;5080385;28;20114;-82
2022/10/16 05:01:38;;;;;;;6.80;1.98;;;;;;;11.10;100.00;100962.38;5078216;28;20031;-82
2022/10/16 05:04:04;;;;;;;3.90;2.20;;;;;;;11.09;100.00;100968.84;5079155;28;20084;-82
2022/10/16 05:06:29;;;;;;;5.67;1.97;;;;;;;11.05;100.00;100984.75;5096537;28;20038;-82
2022/10/16 05:08:55;;;;;;;4.77;2.10;;;;;;;11.05;100.00;100980.16;5095727;28;20629;-82
2022/10/16 05:11:20;;;;;;;5.17;1.80;;;;;;;11.08;100.00;100981.59;5096418;28;20360;-82
2022/10/16 05:13:45;;;;;;;4.63;2.13;;;;;;;11.03;100.00;100979.53;5078990;28;20468;-82
2022/10/16 05:16:11;;;;;;;2.80;1.77;;;;;;;11.04;100.00;100986.66;5078970;28;20035;-82
2022/10/16 05:18:36;;;;;;;6.07;2.00;;;;;;;11.02;100.00;100990.63;5095707;28;20055;-81
2022/10/16 05:21:02;;;;;;;5.90;2.30;;;;;;;11.00;100.00;100979.16;5078980;28;20122;-82
2022/10/16 05:23:28;;;;;;;6.20;2.40;;;;;;;11.00;100.00;100982.69;5095629;28;20024;-82
2022/10/16 05:25:55;;;;;;;2.47;1.50;;;;;;;10.95;100.00;100996.06;5078505;28;20044;-82
2022/10/16 05:28:21;;;;;;;3.77;2.03;;;;;;;10.94;100.00;100982.69;5095720;28;20044;-82
2022/10/16 05:30:46;;;;;;;6.13;1.90;;;;;;;10.91;100.00;100989.41;5095356;28;20026;-82
2022/10/16 05:33:12;;;;;;;4.73;1.63;;;;;;;10.89;100.00;100999.63;5095334;28;20066;-82
2022/10/16 05:35:37;;;;;;;9.57;1.77;;;;;;;10.83;100.00;100998.59;5095638;28;20056;-82
2022/10/16 05:38:02;;;;;;;4.37;1.70;;;;;;;10.79;100.00;100996.53;5095648;28;20752;-82
2022/10/16 05:40:28;;;;;;;3.57;2.00;;;;;;;10.82;100.00;101001.53;5079286;28;20075;-82
2022/10/16 05:42:56;;;;;;;3.57;1.80;;;;;;;10.80;100.00;101000.91;5079309;28;20365;-82
2022/10/16 05:45:22;;;;;;;5.45;2.17;;;;;;;10.80;100.00;101012.59;5078584;28;20085;-82
2022/10/16 05:47:47;;;;;;;5.33;1.80;;;;;;;10.83;100.00;101016.78;5079490;28;20031;-81
2022/10/16 05:50:16;;;;;;;4.37;1.83;;;;;;;10.86;100.00;101032.63;5095949;28;20074;-91
2022/10/16 05:52:44;;;;;;;7.53;1.70;;;;;;;10.84;100.00;101016.56;5113429;28;20024;-89
2022/10/16 05:55:09;;;;;;;5.53;1.88;;;;;;;10.87;100.00;101031.59;5095654;28;20119;-88
2022/10/16 05:57:35;;;;;;;6.73;1.80;;;;;;;10.93;100.00;101036.16;5095274;28;20063;-89
2022/10/16 06:00:00;;;;;;;4.53;1.70;;;;;;;10.93;100.00;101041.59;5095071;28;20052;-89
2022/10/16 06:02:25;;;;;;;4.53;1.63;;;;;;;10.88;100.00;101039.53;5095393;28;20464;-86
2022/10/16 06:04:53;;;;;;;3.67;1.97;;;;;;;10.87;100.00;101043.28;5095633;28;20040;-86
2022/10/16 06:07:19;;;;;;;7.10;1.73;;;;;;;10.91;100.00;101043.69;5095248;28;20060;-87
2022/10/16 06:09:48;;;;;;;3.67;1.70;;;;;;;10.96;100.00;101057.47;5095344;28;20462;-88
2022/10/16 06:12:13;;;;;;;5.53;2.00;;;;;;;10.99;100.00;101059.75;5097065;28;20020;-82
2022/10/16 06:14:39;;;;;;;8.03;1.83;;;;;;;10.98;100.00;101068.94;5099384;28;20039;-82
2022/10/16 06:17:04;;;;;;;6.00;2.00;;;;;;;10.99;100.00;101075.22;5099589;28;20106;-82
2022/10/16 06:19:31;;;;;;;7.93;2.00;;;;;;;10.93;100.00;101079.59;5098719;28;20368;-82
2022/10/16 06:21:57;;;;;;;5.10;1.93;;;;;;;10.94;100.00;101081.28;5082062;28;20277;-82
2022/10/16 06:24:23;;;;;;;5.40;2.03;;;;;;;10.93;100.00;101089.63;5098824;28;20122;-82
2022/10/16 06:26:48;;;;;;;6.80;2.13;;;;;;;10.95;100.00;101090.25;5081528;28;20535;-82
2022/10/16 06:29:14;;;;;;;8.50;2.08;;;;;;;10.91;100.00;101095.28;5098503;28;20072;-82
2022/10/16 06:31:39;;;;;;;8.10;2.40;;;;;;;10.90;100.00;101099.03;5081692;28;20028;-82
2022/10/16 06:34:08;;;;;;;6.70;2.20;;;;;;;10.91;100.00;101097.13;5098692;28;20460;-82
2022/10/16 06:36:34;;;;;;;4.45;2.20;;;;;;;10.93;100.00;101105.94;5098446;28;20035;-82
2022/10/16 06:38:59;;;;;;;6.60;2.47;;;;;;;10.95;100.00;101103.81;5098548;28;20031;-82
2022/10/16 06:41:25;;;;;;;4.30;1.70;;;;;;;10.97;100.00;101113.44;5098394;28;20031;-82
2022/10/16 06:43:51;;;;;;;5.43;1.90;;;;;;;10.99;100.00;101107.78;5081518;28;20034;-82
2022/10/16 06:46:20;;;;;;;5.78;1.77;;;;;;;10.99;100.00;101115.94;5082278;28;20122;-82
2022/10/16 06:48:46;;;;;;;5.38;1.98;;;;;;;11.01;100.00;101127.41;5098974;28;20034;-82
2022/10/16 06:51:17;;;;;;;9.20;2.20;;;;;;;11.06;100.00;101130.34;5098500;28;20024;-82
2022/10/16 06:53:48;;;;;;;3.78;1.73;;;;;;;11.10;100.00;101139.72;5098654;28;20046;-82
2022/10/16 06:56:21;;;;;;;4.67;1.87;;;;;;;11.14;100.00;101138.25;5098413;28;20402;-82
2022/10/16 06:58:48;;;;;;;7.35;2.00;;;;;;;11.17;100.00;101145.13;5098403;28;20023;-82
2022/10/16 07:01:14;;;;;;;5.25;1.95;;;;;;;11.19;100.00;101141.16;5097952;28;20070;-82
2022/10/16 07:03:42;;;;;;;4.18;2.05;;;;;;;11.19;100.00;101141.16;5115982;28;20031;-82
2022/10/16 07:06:09;;;;;;;5.95;2.10;;;;;;;11.24;100.00;101141.34;5097767;28;20050;-82
2022/10/16 07:08:36;;;;;;;5.10;2.10;;;;;;;11.26;100.00;101143.84;5081408;28;20059;-82
2022/10/16 07:11:22;;;;;;;5.47;1.80;;;;;;;11.35;100.00;101152.59;5098610;28;20038;-82
2022/10/16 07:13:49;;;;;;;5.25;2.20;;;;;;;11.41;100.00;101159.91;5098036;28;20375;-82
2022/10/16 07:16:17;;;;;;;5.50;2.10;;;;;;;11.50;100.00;101163.22;5097950;28;20038;-82
2022/10/16 07:18:45;;;;;;;7.75;2.45;;;;;;;11.58;100.00;101166.53;5097638;28;20411;-82
2022/10/16 07:21:20;;;;;;;4.37;1.87;;;;;;;11.62;100.00;101175.13;5080806;28;20055;-82
2022/10/16 07:23:49;;;;;;;4.57;1.90;;;;;;;11.72;100.00;101170.06;5097104;28;20106;-82
2022/10/16 07:26:15;;;;;;;7.47;2.00;;;;;;;11.74;100.00;101173.38;5081029;28;20035;-82
2022/10/16 07:28:42;;;;;;;9.20;2.10;;;;;;;11.80;100.00;101182.56;5080410;28;20043;-82
2022/10/16 07:31:13;;;;;;;3.35;1.77;;;;;;;11.87;100.00;101180.66;5115366;28;20066;-82
2022/10/16 07:33:41;;;;;;;6.75;2.20;;;;;;;11.90;100.00;101190.28;5097509;28;20024;-82
2022/10/16 07:36:07;;;;;;;6.57;2.15;;;;;;;11.99;100.00;101197.16;5115459;28;20115;-83
2022/10/16 07:38:33;;;;;;;3.80;2.10;;;;;;;12.03;100.00;101206.56;5115661;28;20059;-83
2022/10/16 07:41:07;;;;;;;5.83;1.80;;;;;;;12.14;100.00;101205.03;5080357;28;20285;-82
2022/10/16 07:43:33;;;;;;;4.53;1.42;;;;;;;12.23;100.00;101214.63;5096867;28;20028;-82
2022/10/16 07:45:59;;;;;;;5.63;1.70;;;;;;;12.34;100.00;101214.97;5115070;28;20027;-82
2022/10/16 07:48:27;;;;;;;6.25;2.00;;;;;;;12.39;100.00;101217.88;5097015;28;20028;-83
2022/10/16 07:50:58;;;;;;;5.85;2.17;;;;;;;12.49;100.00;101217.41;5096937;28;20036;-82
2022/10/16 07:53:23;;;;;;;7.10;1.65;;;;;;;12.53;100.00;101224.06;5097238;28;20047;-83
2022/10/16 07:55:48;;;;;;;4.57;1.90;;;;;;;12.62;100.00;101226.31;5097340;28;20371;-82
2022/10/16 07:58:14;;;;;;;4.77;1.90;;;;;;;12.66;100.00;101236.78;5096494;28;20459;-81
2022/10/16 08:00:39;;;;;;;5.27;2.07;;;;;;;12.67;100.00;101242.00;5080259;28;20077;-82
2022/10/16 08:03:04;;;;;;;6.32;1.90;;;;;;;12.70;100.00;101233.38;5096752;28;20459;-83
2022/10/16 08:05:32;;;;;;;5.20;1.60;;;;;;;12.73;100.00;101238.38;5114927;28;20467;-85
2022/10/16 08:07:58;;;;;;;3.40;1.67;;;;;;;12.81;100.00;101238.13;5096577;28;20031;-85
2022/10/16 08:10:25;;;;;;;7.60;1.73;;;;;;;12.87;100.00;101247.28;5096835;28;20032;-82
2022/10/16 08:12:51;;;;;;;5.85;1.55;;;;;;;12.90;100.00;101252.31;5080000;28;20035;-83
2022/10/16 08:15:17;;;;;;;5.80;1.73;;;;;;;12.96;100.00;101261.47;5096606;28;20028;-83
2022/10/16 08:17:42;;;;;;;3.60;1.80;;;;;;;13.00;100.00;101254.53;5096254;28;20031;-82
2022/10/16 08:20:08;;;;;;;3.63;1.77;;;;;;;13.07;100.00;101265.38;5079622;28;20036;-83
2022/10/16 08:22:34;;;;;;;5.60;1.60;;;;;;;13.11;100.00;101270.16;5096320;28;20407;-83
2022/10/16 08:24:59;;;;;;;5.97;1.65;;;;;;;13.20;100.00;101265.28;5079085;28;20039;-82
2022/10/16 08:27:25;;;;;;;4.40;1.60;;;;;;;13.27;100.00;101270.66;5079138;28;20062;-82
2022/10/16 08:29:50;;;;;;;7.17;1.53;;;;;;;13.29;100.00;101274.81;5079558;28;20105;-82
2022/10/16 08:32:16;;;;;;;7.10;1.87;;;;;;;13.35;100.00;101273.13;5079590;28;20122;-82
2022/10/16 08:34:44;;;;;;;5.53;1.27;;;;;;;13.39;100.00;101285.25;5079602;28;20418;-83
2022/10/16 08:37:12;;;;;;;4.22;1.52;;;;;;;13.44;100.00;101285.41;5096628;28;20036;-83
2022/10/16 08:39:37;;;;;;;6.53;2.20;;;;;;;13.54;100.00;101303.13;5079452;28;20078;-83
2022/10/16 08:42:20;;;;;;;6.17;1.90;;;;;;;13.59;100.00;101298.69;5114630;28;20468;-83
2022/10/16 08:44:57;;;;;;;5.72;1.75;;;;;;;13.64;100.00;101298.88;5096299;28;20080;-85
2022/10/16 08:47:29;;;;;;;7.00;1.83;;;;;;;13.67;100.00;101300.28;5095885;28;20042;-85
2022/10/16 08:50:01;;;;;;;7.18;1.90;;;;;;;13.73;100.00;101298.56;5096312;28;20024;-85
2022/10/16 08:52:33;;;;;;;5.70;1.57;;;;;;;13.78;100.00;101310.47;5095932;28;20093;-84
2022/10/16 08:54:59;;;;;;;4.07;1.40;;;;;;;13.82;99.62;101306.22;5095707;28;20466;-84
2022/10/16 08:57:28;;;;;;;4.00;1.40;;;;;;;13.89;100.00;101305.31;5062574;28;20127;-85
2022/10/16 09:00:00;;;;;;;5.90;1.40;;;;;;;13.92;99.14;101300.25;5079996;28;20032;-85
2022/10/16 09:02:45;;;;;;;3.92;1.40;;;;;;;14.00;99.97;101305.41;5114225;28;20028;-84
2022/10/16 09:05:16;;;;;;;9.88;1.70;;;;;;;14.08;98.24;101314.34;5114113;28;20077;-85
2022/10/16 09:08:04;;;;;;;8.70;1.50;;;;;;;14.13;98.28;101314.47;5095611;28;20032;-85
2022/10/16 09:11:02;;;;;;;2.67;1.25;;;;;;;14.26;97.92;101329.88;5096146;28;20024;-85
2022/10/16 09:14:14;;;;;;;6.60;1.20;;;;;;;14.32;95.60;101338.00;5096118;28;20019;-85
2022/10/16 09:16:59;;;;;;;5.90;1.45;;;;;;;14.37;95.35;101331.84;5112900;28;20096;-85
2022/10/16 09:19:34;;;;;;;5.97;1.35;;;;;;;14.45;93.70;101336.16;5096033;28;20088;-85
2022/10/16 09:22:09;;;;;;;5.85;1.10;;;;;;;14.56;93.63;101332.66;5114510;28;20024;-85
2022/10/16 09:24:35;;;;;;;3.58;1.05;;;;;;;14.62;92.48;101329.03;5113907;28;20059;-85
2022/10/16 09:27:01;;;;;;;5.27;1.50;;;;;;;14.70;92.94;101331.47;5061770;28;20066;-85
2022/10/16 09:29:27;;;;;;;8.02;1.50;;;;;;;14.74;90.63;101340.84;5078445;28;20047;-85
2022/10/16 09:31:55;;;;;;;3.00;1.20;;;;;;;14.80;92.03;101339.06;5078809;28;20039;-83
2022/10/16 09:34:40;;;;;;;5.07;1.00;;;;;;;14.93;93.66;101345.44;5095769;28;20035;-83
2022/10/16 09:37:12;;;;;;;9.18;1.17;;;;;;;15.18;92.68;101346.09;5113916;28;20024;-83
2022/10/16 09:39:52;;;;;;;8.07;1.50;;;;;;;15.37;90.96;101359.69;5095740;28;20016;-83
2022/10/16 09:42:31;;;;;;;8.80;1.52;;;;;;;15.50;87.62;101351.28;5095892;28;20043;-83
2022/10/16 09:44:56;;;;;;;8.40;1.52;;;;;;;15.59;85.96;101343.56;5095455;28;20031;-83
2022/10/16 09:47:25;;;;;;;6.30;1.40;;;;;;;15.66;84.18;101346.16;5080390;28;20028;-82
2022/10/16 09:49:57;;;;;;;9.02;1.90;;;;;;;15.50;84.20;101337.59;5098787;28;20024;-83
2022/10/16 09:52:23;;;;;;;8.05;1.50;;;;;;;15.47;84.30;101346.25;5100021;28;20031;-82
2022/10/16 09:54:58;;;;;;;8.70;1.88;;;;;;;15.57;85.21;101345.66;5117132;28;20074;-82
2022/10/16 09:57:25;;;;;;;13.20;2.00;;;;;;;15.71;83.95;101355.31;5098921;28;20020;-83
2022/10/16 09:59:55;;;;;;;5.47;1.13;;;;;;;15.88;83.49;101352.72;5117182;28;20063;-83
2022/10/16 10:02:30;;;;;;;8.38;1.90;;;;;;;16.00;83.20;101360.91;5099046;28;20467;-82
2022/10/16 10:04:57;;;;;;;6.18;1.33;;;;;;;16.02;81.41;101366.16;5117422;28;20023;-83
2022/10/16 10:07:32;;;;;;;11.65;1.50;;;;;;;16.01;80.99;101361.78;5082060;28;20471;-83
2022/10/16 10:09:57;;;;;;;9.35;1.70;;;;;;;16.34;79.71;101366.59;5117253;28;20023;-83
2022/10/16 10:12:28;;;;;;;12.13;1.73;;;;;;;16.59;78.61;101355.31;5082068;28;20394;-83
2022/10/16 10:15:03;;;;;;;7.82;2.00;;;;;;;16.55;77.78;101358.78;5098804;28;20039;-83
2022/10/16 10:17:29;;;;;;;9.47;1.50;;;;;;;16.49;77.60;101355.97;5099371;28;20042;-84
2022/10/16 10:20:00;;;;;;;6.35;1.30;;;;;;;16.49;78.81;101368.84;5098731;28;20024;-83
2022/10/16 10:22:40;;;;;;;7.78;2.00;;;;;;;16.51;78.48;101372.16;5098673;28;20127;-82
2022/10/16 10:25:09;;;;;;;9.63;1.60;;;;;;;16.53;78.44;101366.44;5116911;28;20031;-83
2022/10/16 10:28:17;;;;;;;8.65;1.52;;;;;;;16.70;78.75;101372.81;5098491;28;20524;-83
2022/10/16 10:31:08;;;;;;;11.23;1.67;;;;;;;16.76;76.82;101379.22;5116664;28;20032;-83
2022/10/16 10:33:55;;;;;;;9.63;1.67;;;;;;;16.82;75.34;101381.81;5116756;28;20111;-83
2022/10/16 10:36:36;;;;;;;12.75;2.20;;;;;;;17.00;75.25;101390.94;5098365;28;20031;-82
2022/10/16 10:39:19;;;;;;;8.68;1.58;;;;;;;17.09;76.43;101383.97;5098727;28;20046;-82
2022/10/16 10:42:17;;;;;;;9.75;1.70;;;;;;;17.16;75.76;101379.19;5098088;28;20114;-82
2022/10/16 10:44:43;;;;;;;6.47;1.43;;;;;;;17.25;73.44;101381.53;5117630;28;20042;-83
2022/10/16 10:47:14;;;;;;;10.82;1.85;;;;;;;17.30;74.65;101381.59;5098507;28;20032;-82
2022/10/16 10:50:23;;;;;;;8.63;1.60;;;;;;;17.08;72.29;101389.72;5116552;28;20472;-82
2022/10/16 10:53:26;;;;;;;13.45;2.22;;;;;;;16.94;73.83;101395.50;5098978;28;20015;-83
2022/10/16 10:55:51;;;;;;;13.87;2.00;;;;;;;17.25;71.72;101407.03;5098038;28;20471;-82
2022/10/16 10:58:19;;;;;;;7.70;1.80;;;;;;;17.69;70.58;101396.25;5096801;28;20028;-82
2022/10/16 11:00:59;;;;;;;9.77;1.63;;;;;;;17.47;70.66;101393.44;5097905;28;20127;-82
2022/10/16 11:03:34;;;;;;;11.52;1.70;;;;;;;17.19;70.85;101397.06;5098845;28;20063;-82
2022/10/16 11:06:12;;;;;;;9.80;1.80;;;;;;;16.99;70.80;101389.28;5098395;28;20024;-82
2022/10/16 11:08:48;;;;;;;10.60;1.80;;;;;;;16.85;70.81;101391.47;5098049;28;20048;-82
2022/10/16 11:11:24;;;;;;;12.68;2.10;;;;;;;17.51;68.69;101391.84;5097765;28;20042;-82
2022/10/16 11:14:02;;;;;;;10.07;2.03;;;;;;;18.30;70.69;101390.03;5098019;28;20031;-82
2022/10/16 11:16:39;;;;;;;6.47;1.70;;;;;;;21.60;59.94;101393.16;5097685;28;20023;-83
2022/10/16 11:19:43;;;;;;;11.88;2.00;;;;;;;21.82;56.03;101390.09;5097773;28;20026;-82
2022/10/16 11:22:35;;;;;;;8.80;1.80;;;;;;;20.75;60.32;101402.66;5068180;28;20142;-83
2022/10/16 11:25:20;;;;;;;11.65;1.90;;;;;;;23.81;51.77;101391.28;5097499;28;20074;-82
2022/10/16 11:27:58;;;;;;;7.73;1.57;;;;;;;26.55;47.05;101383.31;5115938;28;20040;-83
2022/10/16 11:30:23;;;;;;;8.20;2.13;;;;;;;27.61;42.03;101394.28;5097427;28;20038;-83
2022/10/16 11:33:19;;;;;;;8.10;2.17;;;;;;;29.05;38.60;101396.59;5115614;28;20110;-83